Terminal Aerodrome Forecast
Issued by NWS

Home | Current Version | Previous Version | Text Only | Print | Product List | Glossary On
Versions: 1 2 3 4 5 6 7 8 9 10 11 12 13 14 15 16 17 18 19 20 21 22 23 24 25 26 27 28
000
FTUS46 KLOX 250500
TAFLAX
TAF
KLAX 250522Z 2506/2612 24006KT P6SM SCT200
     FM251000 11006KT P6SM BKN015
     FM251400 11008KT P6SM OVC022
     FM251800 23009KT P6SM BKN025
     FM252200 25015KT P6SM BKN035
     FM260700 25012KT P6SM VCSH SCT035 OVC080=

USA.gov is the U.S. government's official web portal to all federal, state and local government web resources and services.